Terminal Aerodrome Forecast
Issued by NWS

Home | Current Version | Previous Version | Text Only | Print | Product List | Glossary On
Versions: 1 2 3 4 5 6 7 8 9 10 11 12 13 14 15
000
FTUS46 KMTR 191700
TAFSJC
TAF
KSJC 191740Z 1918/2018 13011G15KT 6SM -RA BR SCT020 BKN030 OVC080
     FM192000 13008KT 6SM -SHRA SCT030 BKN050
      TEMPO 2001/2004 4SM RA BR OVC030
     FM200700 12003KT P6SM VCSH SCT030 BKN050
     FM201500 14004KT P6SM SCT040 BKN100=

USA.gov is the U.S. government's official web portal to all federal, state and local government web resources and services.